Time;durP1;ratioP1;P1;durP2;ratioP2;P2;SDS_P1;SDS_P2;PMS_P1;PMS_P2;Temp;Humidity;BMP_temperature;BMP_pressure;BME280_temperature;BME280_humidity;BME280_pressure;Samples;Min_cycle;Max_cycle;Signal;HPM_P1;HPM_P2
2024/02/22 00:01:47;;;;;;;;;;;;;;;9.38;100.00;99822.59;5075473;28;19973;-79
2024/02/22 00:04:13;;;;;;;;;;;;;;;9.36;100.00;99803.53;5074629;28;19916;-79
2024/02/22 00:06:39;;;;;;;;;;;;;;;9.37;100.00;99807.84;5075177;28;19916;-79
2024/02/22 00:09:04;;;;;;;;;;;;;;;9.36;100.00;99803.53;5056647;28;20061;-79
2024/02/22 00:11:29;;;;;;;;;;;;;;;9.36;100.00;99805.31;5056876;28;19920;-79
2024/02/22 00:13:54;;;;;;;;;;;;;;;9.35;100.00;99801.88;5074735;28;19923;-79
2024/02/22 00:16:20;;;;;;;;;;;;;;;9.38;100.00;99795.63;5075079;28;20096;-79
2024/02/22 00:18:45;;;;;;;;;;;;;;;9.36;100.00;99797.47;5057006;28;20108;-79
2024/02/22 00:21:13;;;;;;;;;;;;;;;9.39;100.00;99802.56;5074887;28;19916;-79
2024/02/22 00:23:38;;;;;;;;;;;;;;;9.40;100.00;99791.16;5075599;28;19917;-79
2024/02/22 00:26:04;;;;;;;;;;;;;;;9.38;100.00;99788.63;5075379;28;19923;-79
2024/02/22 00:28:29;;;;;;;;;;;;;;;9.44;100.00;99784.00;5075975;28;19997;-79
2024/02/22 00:30:54;;;;;;;;;;;;;;;9.41;100.00;99796.31;5075040;28;19913;-79
2024/02/22 00:33:20;;;;;;;;;;;;;;;9.39;100.00;99765.97;5075042;28;19920;-79
2024/02/22 00:35:45;;;;;;;;;;;;;;;9.41;100.00;99771.94;5057556;28;19970;-79
2024/02/22 00:38:10;;;;;;;;;;;;;;;9.38;100.00;99782.56;5074768;28;19920;-79
2024/02/22 00:40:36;;;;;;;;;;;;;;;9.39;100.00;99774.66;5056747;28;19924;-79
2024/02/22 00:43:01;;;;;;;;;;;;;;;9.37;100.00;99771.28;5075743;28;19948;-78
2024/02/22 00:45:26;;;;;;;;;;;;;;;9.36;100.00;99779.19;5057419;28;19924;-79
2024/02/22 00:47:52;;;;;;;;;;;;;;;9.35;100.00;99773.13;5074809;28;20093;-78
2024/02/22 00:50:17;;;;;;;;;;;;;;;9.34;100.00;99767.97;5075322;28;19947;-79
2024/02/22 00:52:42;;;;;;;;;;;;;;;9.36;100.00;99766.13;5057348;28;19916;-79
2024/02/22 00:55:08;;;;;;;;;;;;;;;9.37;100.00;99763.44;5074940;28;19916;-79
2024/02/22 00:57:33;;;;;;;;;;;;;;;9.34;100.00;99757.53;5075098;28;19916;-79
2024/02/22 00:59:58;;;;;;;;;;;;;;;9.35;100.00;99751.34;5076143;28;19924;-79
2024/02/22 01:02:26;;;;;;;;;;;;;;;9.35;100.00;99757.44;5078530;28;19958;-79
2024/02/22 01:04:51;;;;;;;;;;;;;;;9.35;100.00;99752.22;5078496;28;19909;-79
2024/02/22 01:07:16;;;;;;;;;;;;;;;9.35;100.00;99764.41;5078771;28;19917;-79
2024/02/22 01:09:42;;;;;;;;;;;;;;;9.29;100.00;99759.53;5079020;28;19913;-79
2024/02/22 01:12:07;;;;;;;;;;;;;;;9.29;100.00;99757.75;5078356;28;19916;-79
2024/02/22 01:14:32;;;;;;;;;;;;;;;9.28;100.00;99750.00;5078597;28;19916;-79
2024/02/22 01:16:57;;;;;;;;;;;;;;;9.29;100.00;99742.06;5077980;28;20177;-79
2024/02/22 01:19:23;;;;;;;;;;;;;;;9.28;100.00;99745.63;5078628;28;19939;-79
2024/02/22 01:21:48;;;;;;;;;;;;;;;9.25;100.00;99739.72;5078493;28;19920;-79
2024/02/22 01:24:13;;;;;;;;;;;;;;;9.24;100.00;99744.09;5077957;28;19912;-79
2024/02/22 01:26:38;;;;;;;;;;;;;;;9.26;100.00;99737.03;5078607;28;20271;-78
2024/02/22 01:29:04;;;;;;;;;;;;;;;9.25;100.00;99730.09;5078119;28;20288;-78
2024/02/22 01:31:30;;;;;;;;;;;;;;;9.28;100.00;99724.72;5077811;28;19927;-78
2024/02/22 01:33:55;;;;;;;;;;;;;;;9.26;100.00;99718.75;5077644;28;19916;-78
2024/02/22 01:36:20;;;;;;;;;;;;;;;9.25;100.00;99721.44;5077990;28;19979;-78
2024/02/22 01:38:45;;;;;;;;;;;;;;;9.26;100.00;99725.72;5078599;28;19916;-78
2024/02/22 01:41:11;;;;;;;;;;;;;;;9.26;100.00;99717.88;5096338;28;19930;-78
2024/02/22 01:43:37;;;;;;;;;;;;;;;9.26;100.00;99715.25;5097798;28;19920;-78
2024/02/22 01:46:02;;;;;;;;;;;;;;;9.28;100.00;99705.56;5097879;28;20249;-78
2024/02/22 01:48:28;;;;;;;;;;;;;;;9.25;100.00;99706.59;5097958;28;19983;-79
2024/02/22 01:50:55;;;;;;;;;;;;;;;9.23;100.00;99714.50;5097385;28;19983;-78
2024/02/22 01:53:21;;;;;;;;;;;;;;;9.22;100.00;99709.34;5097878;28;19915;-78
2024/02/22 01:55:47;;;;;;;;;;;;;;;9.23;100.00;99704.06;5098254;28;20139;-79
2024/02/22 01:58:12;;;;;;;;;;;;;;;9.26;100.00;99704.81;5079830;28;19987;-79
2024/02/22 02:00:39;;;;;;;;;;;;;;;9.23;100.00;99696.22;5097731;28;20100;-78
2024/02/22 02:03:05;;;;;;;;;;;;;;;9.23;100.00;99691.00;5097825;28;19916;-78
2024/02/22 02:05:30;;;;;;;;;;;;;;;9.27;100.00;99683.00;5097472;28;19916;-78
2024/02/22 02:07:55;;;;;;;;;;;;;;;9.28;100.00;99687.28;5097416;28;19916;-78
2024/02/22 02:10:21;;;;;;;;;;;;;;;9.28;100.00;99689.91;5079688;28;19970;-78
2024/02/22 02:12:46;;;;;;;;;;;;;;;9.28;100.00;99682.06;5096720;28;19942;-78
2024/02/22 02:15:11;;;;;;;;;;;;;;;9.27;100.00;99685.63;5097263;28;19974;-78
2024/02/22 02:17:37;;;;;;;;;;;;;;;9.27;100.00;99686.44;5097829;28;19920;-78
2024/02/22 02:20:05;;;;;;;;;;;;;;;9.26;100.00;99678.69;5097350;28;19916;-78
2024/02/22 02:22:33;;;;;;;;;;;;;;;9.24;100.00;99676.19;5097232;28;19916;-78
2024/02/22 02:24:59;;;;;;;;;;;;;;;9.27;100.00;99672.56;5097150;28;19916;-78
2024/02/22 02:27:24;;;;;;;;;;;;;;;9.28;100.00;99671.59;5097112;28;20182;-79
2024/02/22 02:29:50;;;;;;;;;;;;;;;9.28;100.00;99667.25;5097079;28;20208;-78
2024/02/22 02:32:15;;;;;;;;;;;;;;;9.30;100.00;99664.56;5097122;28;19923;-78
2024/02/22 02:34:40;;;;;;;;;;;;;;;9.34;100.00;99669.50;5097570;28;19916;-78
2024/02/22 02:37:06;;;;;;;;;;;;;;;9.36;100.00;99665.06;5078681;28;19943;-78
2024/02/22 02:39:31;;;;;;;;;;;;;;;9.36;100.00;99659.81;5078970;28;19924;-78
2024/02/22 02:41:59;;;;;;;;;;;;;;;9.31;100.00;99667.06;5096531;28;19923;-78
2024/02/22 02:44:24;;;;;;;;;;;;;;;9.31;100.00;99661.00;5096694;28;20092;-78
2024/02/22 02:46:49;;;;;;;;;;;;;;;9.29;100.00;99661.06;5096410;28;20368;-78
2024/02/22 02:49:14;;;;;;;;;;;;;;;9.35;100.00;99654.69;5096558;28;19977;-79
2024/02/22 02:51:39;;;;;;;;;;;;;;;9.33;100.00;99654.78;5096649;28;19919;-78
2024/02/22 02:54:05;;;;;;;;;;;;;;;9.34;100.00;99646.00;5096937;28;19915;-78
2024/02/22 02:56:31;;;;;;;;;;;;;;;9.32;100.00;99645.25;5096444;28;19922;-79
2024/02/22 02:58:57;;;;;;;;;;;;;;;9.36;100.00;99641.53;5096722;28;19951;-78
2024/02/22 03:01:22;;;;;;;;;;;;;;;9.29;100.00;99637.56;5096696;28;20115;-78
2024/02/22 03:03:47;;;;;;;;;;;;;;;9.34;100.00;99635.56;5096651;28;19915;-78
2024/02/22 03:06:13;;;;;;;;;;;;;;;9.32;100.00;99626.97;5096346;28;20187;-79
2024/02/22 03:08:38;;;;;;;;;;;;;;;9.31;100.00;99630.47;5096359;28;19916;-78
2024/02/22 03:11:03;;;;;;;;;;;;;;;9.31;100.00;99629.66;5096385;28;20109;-78
2024/02/22 03:13:29;;;;;;;;;;;;;;;9.28;100.00;99635.03;5096317;28;20198;-78
2024/02/22 03:15:54;;;;;;;;;;;;;;;9.29;100.00;99614.06;5096007;28;19916;-78
2024/02/22 03:18:19;;;;;;;;;;;;;;;9.28;100.00;99609.78;5095962;28;19975;-78
2024/02/22 03:20:45;;;;;;;;;;;;;;;9.30;100.00;99605.31;5096389;28;19916;-79
2024/02/22 03:23:12;;;;;;;;;;;;;;;9.23;100.00;99615.22;5095561;28;19994;-78
2024/02/22 03:25:37;;;;;;;;;;;;;;;9.24;100.00;99618.72;5096459;28;19954;-78
2024/02/22 03:28:06;;;;;;;;;;;;;;;9.21;100.00;99608.41;5095606;28;20211;-78
2024/02/22 03:30:33;;;;;;;;;;;;;;;9.27;100.00;99600.22;5094298;28;19957;-78
2024/02/22 03:32:58;;;;;;;;;;;;;;;9.31;100.00;99604.34;5055393;28;20204;-78
2024/02/22 03:35:23;;;;;;;;;;;;;;;9.25;100.00;99593.41;5055752;28;20142;-78
2024/02/22 03:37:49;;;;;;;;;;;;;;;9.21;100.00;99592.75;5056129;28;19916;-78
2024/02/22 03:40:15;;;;;;;;;;;;;;;9.18;100.00;99591.13;5077133;28;19924;-78
2024/02/22 03:42:40;;;;;;;;;;;;;;;9.13;100.00;99587.94;5096045;28;20227;-78
2024/02/22 03:45:05;;;;;;;;;;;;;;;9.15;100.00;99585.22;5095730;28;19938;-78
2024/02/22 03:47:31;;;;;;;;;;;;;;;9.20;100.00;99578.00;5077806;28;19962;-78
2024/02/22 03:49:56;;;;;;;;;;;;;;;9.21;100.00;99575.28;5095247;28;19990;-78
2024/02/22 03:52:23;;;;;;;;;;;;;;;9.20;100.00;99568.41;5095838;28;19915;-78
2024/02/22 03:54:48;;;;;;;;;;;;;;;9.23;100.00;99556.94;5096328;28;19923;-78
2024/02/22 03:57:14;;;;;;;;;;;;;;;9.24;100.00;99558.63;5096137;28;19916;-78
2024/02/22 03:59:39;;;;;;;;;;;;;;;9.21;100.00;99566.63;5096018;28;19982;-78
2024/02/22 04:02:04;;;;;;;;;;;;;;;9.24;100.00;99558.63;5095558;28;19916;-78
2024/02/22 04:04:30;;;;;;;;;;;;;;;9.25;100.00;99564.69;5096108;28;19918;-78
2024/02/22 04:06:56;;;;;;;;;;;;;;;9.24;100.00;99550.78;5095865;28;20230;-78
2024/02/22 04:09:21;;;;;;;;;;;;;;;9.22;100.00;99555.22;5077641;28;19987;-78
2024/02/22 04:11:47;;;;;;;;;;;;;;;9.23;100.00;99542.09;5095926;28;20233;-78
2024/02/22 04:14:12;;;;;;;;;;;;;;;9.21;100.00;99551.78;5095705;28;19979;-78
2024/02/22 04:16:37;;;;;;;;;;;;;;;9.21;100.00;99550.94;5095917;28;20123;-78
2024/02/22 04:19:02;;;;;;;;;;;;;;;9.16;100.00;99540.75;5077438;28;19915;-78
2024/02/22 04:21:28;;;;;;;;;;;;;;;9.19;100.00;99534.53;5095572;28;20222;-77
2024/02/22 04:23:53;;;;;;;;;;;;;;;9.14;100.00;99537.38;5095390;28;19916;-78
2024/02/22 04:26:18;;;;;;;;;;;;;;;9.11;100.00;99532.31;5095608;28;19916;-78
2024/02/22 04:28:43;;;;;;;;;;;;;;;9.08;100.00;99529.91;5095828;28;19987;-78
2024/02/22 04:31:09;;;;;;;;;;;;;;;9.09;100.00;99520.28;5095982;28;20253;-78
2024/02/22 04:33:34;;;;;;;;;;;;;;;9.08;100.00;99526.41;5095171;28;19920;-78
2024/02/22 04:36:00;;;;;;;;;;;;;;;9.05;100.00;99516.16;5098058;28;19938;-78
2024/02/22 04:38:25;;;;;;;;;;;;;;;8.99;100.00;99520.78;5099351;28;19916;-78
2024/02/22 04:40:51;;;;;;;;;;;;;;;8.99;100.00;99527.78;5082865;28;19924;-78
2024/02/22 04:43:16;;;;;;;;;;;;;;;8.92;100.00;99526.44;5060991;28;19916;-78
2024/02/22 04:45:42;;;;;;;;;;;;;;;8.91;100.00;99524.75;5061289;28;19924;-78
2024/02/22 04:48:07;;;;;;;;;;;;;;;8.91;100.00;99515.13;5060735;28;19924;-78
2024/02/22 04:50:33;;;;;;;;;;;;;;;8.89;100.00;99521.38;5079077;28;19928;-78
2024/02/22 04:52:59;;;;;;;;;;;;;;;8.86;100.00;99509.34;5078645;28;19908;-78
2024/02/22 04:55:24;;;;;;;;;;;;;;;8.83;100.00;99499.06;5079006;28;20204;-78
2024/02/22 04:57:49;;;;;;;;;;;;;;;8.84;100.00;99488.53;5078448;28;19923;-78
2024/02/22 05:00:15;;;;;;;;;;;;;;;8.82;100.00;99486.91;5079080;28;19916;-78
2024/02/22 05:02:40;;;;;;;;;;;;;;;8.78;100.00;99488.84;5060575;28;20093;-78
2024/02/22 05:05:06;;;;;;;;;;;;;;;8.80;100.00;99486.16;5078203;28;19908;-77
2024/02/22 05:07:32;;;;;;;;;;;;;;;8.76;100.00;99480.28;5078765;28;19983;-77
2024/02/22 05:09:57;;;;;;;;;;;;;;;8.77;100.00;99483.75;5086285;28;19920;-77
2024/02/22 05:12:22;;;;;;;;;;;;;;;8.79;100.00;99476.66;5098266;28;19916;-77
2024/02/22 05:14:48;;;;;;;;;;;;;;;8.74;100.00;99468.25;5091846;28;19924;-78
2024/02/22 05:17:14;;;;;;;;;;;;;;;8.68;100.00;99465.94;5056933;28;20204;-78
2024/02/22 05:19:39;;;;;;;;;;;;;;;8.64;100.00;99460.06;5060103;28;19980;-78
2024/02/22 05:22:04;;;;;;;;;;;;;;;8.71;100.00;99452.75;5059772;28;19947;-78
2024/02/22 05:24:30;;;;;;;;;;;;;;;8.71;100.00;99466.63;5077790;28;19956;-78
2024/02/22 05:26:55;;;;;;;;;;;;;;;8.74;100.00;99468.25;5078197;28;19916;-78
2024/02/22 05:29:21;;;;;;;;;;;;;;;8.73;100.00;99467.41;5077996;28;20300;-77
2024/02/22 05:31:46;;;;;;;;;;;;;;;8.69;100.00;99465.03;5060433;28;19983;-78
2024/02/22 05:34:11;;;;;;;;;;;;;;;8.73;100.00;99461.31;5059574;28;20133;-78
2024/02/22 05:36:37;;;;;;;;;;;;;;;8.75;100.00;99455.13;5077987;28;20271;-78
2024/02/22 05:39:03;;;;;;;;;;;;;;;8.77;100.00;99441.97;5077869;28;19928;-78
2024/02/22 05:41:28;;;;;;;;;;;;;;;8.76;100.00;99440.28;5077739;28;19956;-78
2024/02/22 05:43:53;;;;;;;;;;;;;;;8.79;100.00;99427.91;5077916;28;19916;-78
2024/02/22 05:46:19;;;;;;;;;;;;;;;8.77;100.00;99429.75;5059492;28;20287;-78
2024/02/22 05:48:44;;;;;;;;;;;;;;;8.79;100.00;99429.69;5077872;28;19982;-77
2024/02/22 05:51:09;;;;;;;;;;;;;;;8.76;100.00;99424.63;5077369;28;19913;-78
2024/02/22 05:53:34;;;;;;;;;;;;;;;8.76;100.00;99420.25;5077834;28;19916;-78
2024/02/22 05:56:00;;;;;;;;;;;;;;;8.80;100.00;99421.78;5077302;28;19924;-78
2024/02/22 05:58:25;;;;;;;;;;;;;;;8.82;100.00;99417.31;5077720;28;19971;-78
2024/02/22 06:00:50;;;;;;;;;;;;;;;8.81;100.00;99412.16;5077612;28;19950;-78
2024/02/22 06:03:15;;;;;;;;;;;;;;;8.82;100.00;99416.44;5077830;28;20119;-78
2024/02/22 06:05:42;;;;;;;;;;;;;;;8.86;100.00;99404.91;5078014;28;20122;-78
2024/02/22 06:08:08;;;;;;;;;;;;;;;8.84;100.00;99396.31;5077206;28;20163;-78
2024/02/22 06:10:33;;;;;;;;;;;;;;;8.87;100.00;99392.69;5077371;28;19920;-78
2024/02/22 06:12:58;;;;;;;;;;;;;;;8.88;100.00;99389.13;5077192;28;19920;-78
2024/02/22 06:15:24;;;;;;;;;;;;;;;8.80;100.00;99386.97;5077498;28;19928;-78
2024/02/22 06:17:49;;;;;;;;;;;;;;;8.72;100.00;99374.34;5077144;28;19974;-78
2024/02/22 06:20:15;;;;;;;;;;;;;;;8.75;100.00;99370.72;5077687;28;19916;-78
2024/02/22 06:22:41;;;;;;;;;;;;;;;8.77;100.00;99374.13;5059003;28;20111;-78
2024/02/22 06:25:06;;;;;;;;;;;;;;;8.80;100.00;99368.69;5076688;28;19908;-77
2024/02/22 06:27:32;;;;;;;;;;;;;;;8.80;100.00;99356.50;5076879;28;19915;-78
2024/02/22 06:29:57;;;;;;;;;;;;;;;8.82;100.00;99359.00;5077008;28;19927;-78
2024/02/22 06:32:23;;;;;;;;;;;;;;;8.81;100.00;99354.72;5058720;28;19917;-78
2024/02/22 06:34:49;;;;;;;;;;;;;;;8.80;100.00;99345.19;5058879;28;20116;-78
2024/02/22 06:37:15;;;;;;;;;;;;;;;8.78;100.00;99342.69;5076969;28;19916;-78
2024/02/22 06:39:40;;;;;;;;;;;;;;;8.78;100.00;99337.47;5076612;28;19931;-78
2024/02/22 06:42:06;;;;;;;;;;;;;;;8.79;100.00;99328.72;5076538;28;20195;-78
2024/02/22 06:44:31;;;;;;;;;;;;;;;8.83;100.00;99313.72;5058283;28;19916;-78
2024/02/22 06:46:56;;;;;;;;;;;;;;;8.86;100.00;99299.63;5076516;28;19922;-78
2024/02/22 06:49:22;;;;;;;;;;;;;;;8.86;100.00;99303.09;5076462;28;19983;-78
2024/02/22 06:51:47;;;;;;;;;;;;;;;8.88;100.00;99279.50;5076608;28;19928;-78
2024/02/22 06:54:13;;;;;;;;;;;;;;;8.89;100.00;99278.56;5075967;28;19916;-78
2024/02/22 06:56:38;;;;;;;;;;;;;;;8.90;100.00;99282.88;5058250;28;19940;-78
2024/02/22 06:59:04;;;;;;;;;;;;;;;8.91;100.00;99287.97;5057535;28;20174;-78
2024/02/22 07:01:29;;;;;;;;;;;;;;;8.88;100.00;99290.78;5076297;28;19923;-78
2024/02/22 07:03:54;;;;;;;;;;;;;;;8.90;100.00;99296.75;5057687;28;19996;-78
2024/02/22 07:06:19;;;;;;;;;;;;;;;8.88;100.00;99290.78;5076406;28;19917;-78
2024/02/22 07:08:45;;;;;;;;;;;;;;;8.89;100.00;99287.25;5076343;28;19916;-78
2024/02/22 07:11:11;;;;;;;;;;;;;;;8.89;100.00;99289.84;5057801;28;19992;-78
2024/02/22 07:13:36;;;;;;;;;;;;;;;8.89;100.00;99279.41;5075919;28;20282;-78
2024/02/22 07:16:02;;;;;;;;;;;;;;;8.88;100.00;99267.31;5057216;28;20084;-78
2024/02/22 07:18:27;;;;;;;;;;;;;;;8.89;100.00;99268.97;5057630;28;19923;-78
2024/02/22 07:20:52;;;;;;;;;;;;;;;8.88;100.00;99263.81;5057444;28;19926;-78
2024/02/22 07:23:17;;;;;;;;;;;;;;;8.90;100.00;99256.78;5057554;28;19944;-78
2024/02/22 07:25:43;;;;;;;;;;;;;;;8.92;100.00;99249.69;5075851;28;19917;-78
2024/02/22 07:28:10;;;;;;;;;;;;;;;8.91;100.00;99243.59;5075466;28;20522;-78
2024/02/22 07:30:36;;;;;;;;;;;;;;;8.91;100.00;99242.78;5075705;28;20255;-78
2024/02/22 07:33:01;;;;;;;;;;;;;;;8.91;100.00;99248.00;5075260;28;20011;-78
2024/02/22 07:35:27;;;;;;;;;;;;;;;8.92;100.00;99232.25;5074967;28;20227;-78
2024/02/22 07:37:52;;;;;;;;;;;;;;;8.96;100.00;99227.69;5075234;28;19924;-78
2024/02/22 07:40:17;;;;;;;;;;;;;;;8.99;100.00;99211.84;5074977;28;20204;-78
2024/02/22 07:42:42;;;;;;;;;;;;;;;8.99;100.00;99212.66;5075728;28;19965;-78
2024/02/22 07:45:10;;;;;;;;;;;;;;;9.00;100.00;99210.88;5057156;28;20166;-78
2024/02/22 07:47:35;;;;;;;;;;;;;;;9.01;100.00;99218.63;5072621;28;19938;-78
2024/02/22 07:50:00;;;;;;;;;;;;;;;9.01;100.00;99207.34;5075186;28;19992;-78
2024/02/22 07:52:26;;;;;;;;;;;;;;;8.99;100.00;99198.78;5075465;28;19943;-78
2024/02/22 07:54:51;;;;;;;;;;;;;;;8.98;100.00;99197.09;5070636;28;20119;-78
2024/02/22 07:57:16;;;;;;;;;;;;;;;9.00;100.00;99190.84;5057391;28;19920;-78
2024/02/22 07:59:41;;;;;;;;;;;;;;;9.00;100.00;99179.56;5075969;28;19970;-78
2024/02/22 08:02:07;;;;;;;;;;;;;;;9.02;100.00;99175.06;5075050;28;19927;-78
2024/02/22 08:04:32;;;;;;;;;;;;;;;9.02;100.00;99175.06;5075462;28;19926;-78
2024/02/22 08:06:57;;;;;;;;;;;;;;;9.03;100.00;99177.59;5074999;28;19925;-78
2024/02/22 08:09:22;;;;;;;;;;;;;;;9.05;100.00;99169.69;5075397;28;19940;-78
2024/02/22 08:11:48;;;;;;;;;;;;;;;9.07;100.00;99173.03;5079296;28;19924;-78
2024/02/22 08:14:13;;;;;;;;;;;;;;;9.06;100.00;99160.06;5078854;28;19908;-78
2024/02/22 08:16:39;;;;;;;;;;;;;;;9.07;100.00;99148.69;5079571;28;19966;-78
2024/02/22 08:19:05;;;;;;;;;;;;;;;9.10;100.00;99128.47;5074424;28;19916;-78
2024/02/22 08:21:32;;;;;;;;;;;;;;;9.11;100.00;99108.38;5074240;28;19927;-78
2024/02/22 08:23:57;;;;;;;;;;;;;;;9.12;100.00;99097.03;5069239;28;19920;-78
2024/02/22 08:26:23;;;;;;;;;;;;;;;9.12;100.00;99108.31;5070207;28;19987;-78
2024/02/22 08:28:48;;;;;;;;;;;;;;;9.14;100.00;99105.59;5074985;28;19929;-78
2024/02/22 08:31:14;;;;;;;;;;;;;;;9.16;100.00;99094.09;5053249;28;19925;-78
2024/02/22 08:33:39;;;;;;;;;;;;;;;9.16;100.00;99094.09;5070131;28;19908;-78
2024/02/22 08:36:06;;;;;;;;;;;;;;;9.16;100.00;99095.88;5072459;28;19912;-77
2024/02/22 08:38:31;;;;;;;;;;;;;;;9.17;100.00;99080.13;5072444;28;20162;-78
2024/02/22 08:40:56;;;;;;;;;;;;;;;9.17;100.00;99082.75;5057315;28;19923;-78
2024/02/22 08:43:21;;;;;;;;;;;;;;;9.22;100.00;99085.03;5056132;28;20172;-78
2024/02/22 08:45:47;;;;;;;;;;;;;;;9.20;100.00;99077.34;5046111;28;19950;-78
2024/02/22 08:48:14;;;;;;;;;;;;;;;9.21;100.00;99073.78;5071668;28;20119;-78
2024/02/22 08:50:40;;;;;;;;;;;;;;;9.22;100.00;99061.53;5070945;28;19913;-78
2024/02/22 08:53:05;;;;;;;;;;;;;;;9.23;100.00;99063.22;5072687;28;19916;-78
2024/02/22 08:55:30;;;;;;;;;;;;;;;9.24;100.00;99062.31;5067451;28;19959;-78
2024/02/22 08:57:56;;;;;;;;;;;;;;;9.27;100.00;99058.66;5038545;28;19944;-78
2024/02/22 09:00:21;;;;;;;;;;;;;;;9.22;100.00;99045.88;5055724;28;20103;-78
2024/02/22 09:02:48;;;;;;;;;;;;;;;9.21;100.00;99041.59;5055827;28;19962;-78
2024/02/22 09:05:13;;;;;;;;;;;;;;;9.23;100.00;99019.66;5058388;28;19917;-78
2024/02/22 09:07:38;;;;;;;;;;;;;;;9.22;100.00;99010.16;5057686;28;19920;-78
2024/02/22 09:10:06;;;;;;;;;;;;;;;9.25;100.00;99006.50;5056958;28;19921;-78
2024/02/22 09:12:31;;;;;;;;;;;;;;;9.30;100.00;98993.16;5058385;28;20316;-78
2024/02/22 09:14:57;;;;;;;;;;;;;;;9.31;100.00;98990.41;5058201;28;19927;-78
2024/02/22 09:17:22;;;;;;;;;;;;;;;9.36;100.00;98996.19;5060065;28;20008;-78
2024/02/22 09:19:49;;;;;;;;;;;;;;;9.40;100.00;98987.25;5040650;28;19943;-78
2024/02/22 09:22:14;;;;;;;;;;;;;;;9.46;100.00;98986.00;5040292;28;19921;-78
2024/02/22 09:24:43;;;;;;;;;;;;;;;9.53;100.00;98974.19;5054684;28;19917;-78
2024/02/22 09:27:09;;;;;;;;;;;;;;;9.57;100.00;98959.97;5039200;28;20160;-78
2024/02/22 09:29:35;;;;;;;;;;;;;;;9.58;100.00;98947.75;5058151;28;19917;-78
2024/02/22 09:32:01;;;;;;;;;;;;;;;9.59;100.00;98952.88;5056966;28;19925;-78
2024/02/22 09:34:27;;;;;;;;;;;;;;;9.61;100.00;98966.69;5055349;28;19917;-78
2024/02/22 09:36:52;;;;;;;;;;;;;;;9.63;100.00;98945.66;5056483;28;19912;-78
2024/02/22 09:39:19;;;;;;;;;;;;;;;9.63;100.00;98931.78;5058532;28;19958;-78
2024/02/22 09:41:46;;;;;;;;;;;;;;;9.63;100.00;98927.38;5071620;28;19935;-78
2024/02/22 09:44:12;;;;;;;;;;;;;;;9.63;100.00;98910.88;5072743;28;19908;-78
2024/02/22 09:46:38;;;;;;;;;;;;;;;9.65;100.00;98907.19;5073927;28;19920;-78
2024/02/22 09:49:03;;;;;;;;;;;;;;;9.67;100.00;98892.25;5071349;28;20093;-78
2024/02/22 09:51:30;;;;;;;;;;;;;;;9.71;100.00;98879.81;5066243;28;19925;-78
2024/02/22 09:53:56;;;;;;;;;;;;;;;9.71;100.00;98885.84;5057092;28;19917;-78
2024/02/22 09:56:21;;;;;;;;;;;;;;;9.72;100.00;98866.63;5070309;28;20223;-78
2024/02/22 09:58:48;;;;;;;;;;;;;;;9.73;100.00;98873.53;5062992;28;19916;-78
2024/02/22 10:01:13;;;;;;;;;;;;;;;9.75;100.00;98863.81;5053755;28;19979;-78
2024/02/22 10:03:40;;;;;;;;;;;;;;;9.78;100.00;98865.38;5071429;28;19916;-78
2024/02/22 10:06:15;;;;;;;;;;;;;;;9.78;100.00;98865.38;5071998;28;19991;-78
2024/02/22 10:08:40;;;;;;;;;;;;;;;9.78;100.00;98866.19;5070738;28;19949;-78
2024/02/22 10:11:05;;;;;;;;;;;;;;;9.78;100.00;98850.50;5070387;28;20242;-78
2024/02/22 10:13:31;;;;;;;;;;;;;;;9.79;100.00;98841.75;5072633;28;20219;-78
2024/02/22 10:15:57;;;;;;;;;;;;;;;9.82;100.00;98824.16;5061854;28;19917;-78
2024/02/22 10:18:23;;;;;;;;;;;;;;;9.84;100.00;98807.44;5058179;28;19927;-78
2024/02/22 10:20:49;;;;;;;;;;;;;;;9.87;100.00;98799.38;5067890;28;19912;-78
2024/02/22 10:23:17;;;;;;;;;;;;;;;9.89;100.00;98799.28;5070853;28;20216;-78
2024/02/22 10:25:42;;;;;;;;;;;;;;;9.89;100.00;98817.56;5068384;28;20330;-78
2024/02/22 10:28:12;;;;;;;;;;;;;;;9.93;100.00;98798.09;5049884;28;20688;-78
2024/02/22 10:30:38;;;;;;;;;;;;;;;9.97;100.00;98791.72;5071456;28;20125;-78
2024/02/22 10:33:04;;;;;;;;;;;;;;;10.01;100.00;98769.66;5065840;28;19923;-78
2024/02/22 10:35:33;;;;;;;;;;;;;;;10.04;100.00;98760.72;5073471;28;19917;-78
2024/02/22 10:38:00;;;;;;;;;;;;;;;10.07;100.00;98753.50;5072730;28;19921;-78
2024/02/22 10:40:26;;;;;;;;;;;;;;;10.08;100.00;98747.34;5053457;28;20262;-78
2024/02/22 10:42:52;;;;;;;;;;;;;;;10.07;100.00;98756.13;5051397;28;19920;-78
2024/02/22 10:45:17;;;;;;;;;;;;;;;10.07;100.00;98748.28;5050029;28;19924;-78
2024/02/22 10:47:46;;;;;;;;;;;;;;;10.09;100.00;98750.78;5070031;28;19920;-78
2024/02/22 10:50:14;;;;;;;;;;;;;;;10.08;100.00;98752.56;5071248;28;19920;-78
2024/02/22 10:52:39;;;;;;;;;;;;;;;10.11;100.00;98736.63;5070631;28;19924;-78
2024/02/22 10:55:09;;;;;;;;;;;;;;;10.13;100.00;98713.84;5051833;28;20670;-78
2024/02/22 10:57:35;;;;;;;;;;;;;;;10.17;100.00;98714.47;5070949;28;19947;-78
2024/02/22 11:00:01;;;;;;;;;;;;;;;10.19;100.00;98702.09;5051701;28;19916;-78
2024/02/22 11:02:27;;;;;;;;;;;;;;;10.23;100.00;98694.88;5068755;28;19999;-78
2024/02/22 11:04:58;;;;;;;;;;;;;;;10.24;100.00;98692.13;5068891;28;20233;-78
2024/02/22 11:07:24;;;;;;;;;;;;;;;10.29;100.00;98678.69;5052442;28;19927;-78
2024/02/22 11:09:51;;;;;;;;;;;;;;;10.30;100.00;98649.00;5052009;28;19916;-78
2024/02/22 11:12:19;;;;;;;;;;;;;;;10.33;100.00;98660.09;5070212;28;19920;-78
2024/02/22 11:14:44;;;;;;;;;;;;;;;10.33;100.00;98648.78;5070881;28;19927;-78
2024/02/22 11:17:21;;;;;;;;;;;;;;;10.34;100.00;98622.50;5068198;28;19920;-78
2024/02/22 11:19:51;;;;;;;;;;;;;;;10.35;100.00;98620.72;5068339;28;19987;-78
2024/02/22 11:22:17;;;;;;;;;;;;;;;10.36;100.00;98617.16;5050175;28;19943;-78
2024/02/22 11:24:43;;;;;;;;;;;;;;;10.37;100.00;98595.28;5051264;28;19943;-78
2024/02/22 11:27:18;;;;;;;;;;;;;;;10.38;100.00;98594.31;5052746;28;20373;-78
2024/02/22 11:29:43;;;;;;;;;;;;;;;10.35;100.00;98592.78;5071111;28;19917;-78
2024/02/22 11:32:11;;;;;;;;;;;;;;;10.35;100.00;98584.06;5050959;28;19931;-78
2024/02/22 11:34:36;;;;;;;;;;;;;;;10.34;100.00;98570.16;5068820;28;19916;-78
2024/02/22 11:37:17;;;;;;;;;;;;;;;10.34;100.00;98561.50;5071187;28;19987;-78
2024/02/22 11:39:58;;;;;;;;;;;;;;;10.34;100.00;98556.25;5004522;28;1804508;-78
2024/02/22 11:42:23;;;;;;;;;;;;;;;10.33;100.00;98541.50;5070290;28;20204;-78
2024/02/22 11:44:49;;;;;;;;;;;;;;;10.33;100.00;98525.81;5069558;28;19970;-78
2024/02/22 11:47:14;;;;;;;;;;;;;;;10.33;100.00;98528.41;5071283;28;20324;-78
2024/02/22 11:49:39;;;;;;;;;;;;;;;10.34;100.00;98522.25;5069375;28;20099;-78
2024/02/22 11:52:07;;;;;;;;;;;;;;;10.35;100.00;98508.19;5069421;28;19920;-78
2024/02/22 11:54:32;;;;;;;;;;;;;;;10.37;100.00;98501.09;5070298;28;19928;-78
2024/02/22 11:56:58;;;;;;;;;;;;;;;10.37;100.00;98478.38;5051647;28;20055;-78
2024/02/22 11:59:24;;;;;;;;;;;;;;;10.38;100.00;98485.25;5068642;28;19920;-78
2024/02/22 12:01:49;;;;;;;;;;;;;;;10.38;100.00;98460.88;5071454;28;20316;-78
2024/02/22 12:04:15;;;;;;;;;;;;;;;10.42;100.00;98451.00;5071230;28;19924;-78
2024/02/22 12:06:40;;;;;;;;;;;;;;;10.42;100.00;98436.13;5070610;28;19920;-78
2024/02/22 12:09:07;;;;;;;;;;;;;;;10.44;100.00;98434.25;5069688;28;19940;-78
2024/02/22 12:11:33;;;;;;;;;;;;;;;10.47;100.00;98414.84;5068042;28;19932;-78
2024/02/22 12:13:59;;;;;;;;;;;;;;;10.47;100.00;98405.22;5069250;28;19912;-78
2024/02/22 12:16:26;;;;;;;;;;;;;;;10.46;100.00;98380.00;5066160;28;19920;-78
2024/02/22 12:18:51;;;;;;;;;;;;;;;10.49;100.00;98371.06;5052131;28;19966;-78
2024/02/22 12:21:19;;;;;;;;;;;;;;;10.48;100.00;98344.09;5070385;28;19920;-78
2024/02/22 12:23:44;;;;;;;;;;;;;;;10.51;100.00;98343.00;5070969;28;19916;-78
2024/02/22 12:26:10;;;;;;;;;;;;;;;10.54;100.00;98337.53;5068489;28;19920;-78
2024/02/22 12:28:35;;;;;;;;;;;;;;;10.55;100.00;98324.31;5070455;28;19939;-78
2024/02/22 12:31:04;;;;;;;;;;;;;;;10.59;100.00;98309.19;5069966;28;20219;-78
2024/02/22 12:33:30;;;;;;;;;;;;;;;10.60;100.00;98291.72;5069987;28;19936;-78
2024/02/22 12:35:57;;;;;;;;;;;;;;;10.61;100.00;98277.69;5069595;28;19921;-78
2024/02/22 12:38:22;;;;;;;;;;;;;;;10.63;100.00;98283.63;5049911;28;20203;-78